Time;durP1;ratioP1;P1;durP2;ratioP2;P2;SDS_P1;SDS_P2;PMS_P1;PMS_P2;Temp;Humidity;BMP_temperature;BMP_pressure;BME280_temperature;BME280_humidity;BME280_pressure;Samples;Min_cycle;Max_cycle;Signal;HPM_P1;HPM_P2
2022/10/12 00:00:38;;;;;;;17.60;7.10;;;7.70;99.90;;;;;;5034048;28;48237;-82
2022/10/12 00:03:06;;;;;;;15.03;6.60;;;7.70;99.90;;;;;;5036809;28;38172;-82
2022/10/12 00:05:38;;;;;;;15.10;6.40;;;7.70;99.90;;;;;;5040927;28;35959;-83
2022/10/12 00:08:21;;;;;;;17.02;6.68;;;7.70;99.90;;;;;;5024272;28;38968;-82
2022/10/12 00:10:47;;;;;;;;;;;7.70;99.90;;;;;;5044122;28;38687;-81
2022/10/12 00:13:13;;;;;;;14.40;5.80;;;7.60;99.90;;;;;;5033187;28;37900;-82
2022/10/12 00:15:52;;;;;;;15.27;6.23;;;7.60;99.90;;;;;;5036676;28;35758;-82
2022/10/12 00:18:18;;;;;;;16.93;7.20;;;7.50;99.90;;;;;;5027747;28;38422;-81
2022/10/12 00:20:58;;;;;;;13.40;6.63;;;7.60;99.90;;;;;;5038510;28;38525;-82
2022/10/12 00:23:31;;;;;;;13.90;6.20;;;7.50;99.90;;;;;;5021433;28;38197;-82
2022/10/12 00:26:18;;;;;;;11.50;5.87;;;7.50;99.90;;;;;;5031425;28;38571;-81
2022/10/12 00:34:09;;;;;;;17.13;6.03;;;7.40;99.90;;;;;;6148924;23;20017;-81
2022/10/12 00:36:36;;;;;;;15.80;5.77;;;7.40;99.90;;;;;;5017405;28;35476;-79
2022/10/12 00:39:05;;;;;;;15.57;6.73;;;7.30;99.90;;;;;;4992933;28;38171;-80
2022/10/12 00:41:38;;;;;;;18.07;6.63;;;7.30;99.90;;;;;;5003098;28;48220;-80
2022/10/12 00:44:48;;;;;;;17.77;6.37;;;7.30;99.90;;;;;;5024941;28;39465;-81
2022/10/12 00:47:40;;;;;;;14.37;6.90;;;7.20;99.90;;;;;;5034420;28;38555;-81
2022/10/12 00:50:35;;;;;;;15.93;7.33;;;7.20;99.90;;;;;;5012361;28;40474;-81
2022/10/12 00:53:20;;;;;;;22.90;7.53;;;7.20;99.90;;;;;;5020939;28;38750;-80
2022/10/12 00:56:09;;;;;;;17.20;6.73;;;7.10;99.90;;;;;;5004397;28;48627;-81
2022/10/12 00:58:38;;;;;;;10.77;5.93;;;7.10;99.90;;;;;;5017444;28;48929;-81
2022/10/12 01:04:02;;;;;;;14.23;6.40;;;7.10;99.90;;;;;;5288170;23;20039;-82
2022/10/12 01:14:42;;;;;;;14.83;6.23;;;6.90;99.90;;;;;;5519961;22;20078;-83
2022/10/12 01:21:17;;;;;;;12.10;6.83;;;6.80;99.90;;;;;;5022362;28;38936;-82
2022/10/12 01:24:20;;;;;;;15.47;7.17;;;6.80;99.90;;;;;;5042646;28;50132;-82
2022/10/12 01:27:27;;;;;;;13.47;6.63;;;6.80;99.90;;;;;;5031458;28;48031;-82
2022/10/12 01:30:22;;;;;;;12.03;6.13;;;6.80;99.90;;;;;;4989252;28;48963;-82
2022/10/12 01:41:51;;;;;;;19.07;7.57;;;6.70;99.90;;;;;;5118792;23;20048;-82
2022/10/12 01:44:39;;;;;;;15.57;6.57;;;6.70;99.90;;;;;;4967917;28;37634;-83
2022/10/12 01:53:47;;;;;;;15.27;6.67;;;6.60;99.90;;;;;;5022054;28;39931;-82
2022/10/12 01:56:28;;;;;;;16.10;6.83;;;6.60;99.90;;;;;;5022260;28;37654;-82
2022/10/12 01:58:56;;;;;;;12.50;5.60;;;6.50;99.90;;;;;;5027606;28;39260;-81
2022/10/12 02:01:41;;;;;;;15.03;7.23;;;6.50;99.90;;;;;;5017183;28;39284;-82
2022/10/12 02:04:30;;;;;;;14.40;6.23;;;6.50;99.90;;;;;;5016391;28;38255;-82
2022/10/12 02:07:45;;;;;;;12.23;6.43;;;6.50;99.90;;;;;;5036746;28;37320;-82
2022/10/12 02:10:23;;;;;;;18.00;6.40;;;6.50;99.90;;;;;;4998945;28;50053;-82
2022/10/12 02:13:05;;;;;;;13.30;6.23;;;6.40;99.90;;;;;;5040839;28;39671;-82
2022/10/12 02:15:43;;;;;;;13.87;6.77;;;6.40;99.90;;;;;;5007926;28;48846;-82
2022/10/12 02:18:42;;;;;;;21.70;7.37;;;6.40;99.90;;;;;;5014568;28;37407;-82
2022/10/12 02:21:18;;;;;;;14.70;6.77;;;6.40;99.90;;;;;;5012313;28;40184;-83
2022/10/12 02:24:18;;;;;;;17.23;6.63;;;6.40;99.90;;;;;;4978991;28;38838;-82
2022/10/12 02:27:20;;;;;;;15.27;7.20;;;6.40;99.90;;;;;;5017859;28;49615;-82
2022/10/12 02:29:54;;;;;;;15.73;7.10;;;6.40;99.90;;;;;;4977911;28;49079;-81
2022/10/12 02:33:20;;;;;;;18.80;7.80;;;6.40;99.90;;;;;;5020277;28;50104;-82
2022/10/12 02:36:24;;;;;;;17.73;6.70;;;6.40;99.90;;;;;;5023699;28;48756;-82
2022/10/12 02:41:39;;;;;;;17.73;7.67;;;6.30;99.90;;;;;;6107947;23;21154;31
2022/10/12 02:44:13;;;;;;;15.23;7.60;;;6.30;99.90;;;;;;4969016;23;37617;-80
2022/10/12 02:49:32;;;;;;;16.87;7.90;;;6.30;99.90;;;;;;6091190;23;21331;31
2022/10/12 02:57:32;;;;;;;15.67;6.93;;;6.30;99.90;;;;;;5170522;23;19922;-81
2022/10/12 03:00:01;;;;;;;17.30;7.67;;;6.30;99.90;;;;;;5026442;28;39660;-80
2022/10/12 03:22:23;;;;;;;15.33;7.17;;;6.40;99.90;;;;;;5925139;23;20043;-80
2022/10/12 03:30:38;;;;;;;16.37;7.40;;;6.50;99.90;;;;;;5016897;23;20034;-81
2022/10/12 03:33:34;;;;;;;13.83;7.20;;;6.50;99.90;;;;;;4965939;28;38601;-80
2022/10/12 03:40:20;;;;;;;16.07;7.53;;;6.50;99.90;;;;;;4972257;28;50527;-81
2022/10/12 04:21:34;;;;;;;13.90;6.90;;;6.40;99.90;;;;;;6106027;23;20022;31
2022/10/12 05:25:15;;;;;;;14.97;7.60;;;6.50;99.90;;;;;;5517398;23;20038;-80
2022/10/12 05:35:25;;;;;;;14.73;7.10;;;6.50;99.90;;;;;;6024720;23;20043;-80
2022/10/12 05:48:35;;;;;;;16.87;9.50;;;6.30;99.90;;;;;;5018101;26;20039;-81
2022/10/12 05:51:01;;;;;;;14.60;9.23;;;6.20;99.90;;;;;;5015176;28;38184;-80
2022/10/12 05:53:27;;;;;;;14.47;9.23;;;6.20;99.90;;;;;;5027987;28;37433;-81
2022/10/12 05:55:58;;;;;;;13.73;9.87;;;6.10;99.90;;;;;;5003214;28;39271;-81
2022/10/12 05:58:26;;;;;;;19.33;10.27;;;6.10;99.90;;;;;;5004830;28;37281;-81
2022/10/12 06:00:53;;;;;;;17.60;10.60;;;6.10;99.90;;;;;;5002581;28;38216;-80
2022/10/12 06:03:19;;;;;;;14.80;9.80;;;6.00;99.90;;;;;;4999395;28;34981;-81
2022/10/12 06:05:46;;;;;;;17.97;9.83;;;6.00;99.90;;;;;;5001278;28;39374;-80
2022/10/12 06:08:13;;;;;;;18.67;9.50;;;6.00;99.90;;;;;;5020941;28;38090;-80
2022/10/12 06:10:48;;;;;;;15.87;9.07;;;6.00;99.90;;;;;;5009727;28;37083;-80
2022/10/12 06:13:16;;;;;;;17.93;10.60;;;6.00;99.90;;;;;;5007030;28;36021;-79
2022/10/12 06:15:46;;;;;;;16.33;9.83;;;6.00;99.90;;;;;;5010126;28;40770;-81
2022/10/12 06:18:13;;;;;;;13.73;9.27;;;6.10;99.90;;;;;;5011287;28;38521;-80
2022/10/12 06:20:44;;;;;;;19.67;11.60;;;6.00;99.90;;;;;;5014183;28;38322;-81
2022/10/12 06:23:10;;;;;;;17.60;10.20;;;6.00;99.90;;;;;;5010162;28;37817;-80
2022/10/12 06:25:36;;;;;;;15.70;8.33;;;6.10;99.90;;;;;;5027305;28;41406;-80
2022/10/12 06:28:02;;;;;;;18.30;9.63;;;6.10;99.90;;;;;;5014240;28;37665;-80
2022/10/12 06:30:28;;;;;;;18.07;10.07;;;6.00;99.90;;;;;;5005739;28;39827;-82
2022/10/12 06:32:54;;;;;;;13.93;9.27;;;6.00;99.90;;;;;;5010982;28;35593;-80
2022/10/12 06:35:20;;;;;;;21.00;10.23;;;6.10;99.90;;;;;;5010176;28;40578;-80
2022/10/12 06:37:50;;;;;;;18.43;10.20;;;6.10;99.90;;;;;;5028652;28;39336;-81
2022/10/12 06:40:19;;;;;;;18.23;10.27;;;6.10;99.90;;;;;;5013970;28;38061;-81
2022/10/12 06:42:47;;;;;;;15.73;10.47;;;6.10;99.90;;;;;;5004876;28;36733;-81
2022/10/12 06:45:13;;;;;;;15.60;10.60;;;6.10;99.90;;;;;;5006352;28;37990;-81
2022/10/12 06:47:39;;;;;;;13.50;9.63;;;6.10;99.90;;;;;;5029204;28;39839;-80
2022/10/12 06:50:06;;;;;;;16.37;9.90;;;6.10;99.90;;;;;;5013723;28;36719;-80
2022/10/12 06:52:32;;;;;;;15.50;9.87;;;6.10;99.90;;;;;;5004153;28;37431;-81
2022/10/12 06:54:58;;;;;;;17.60;10.33;;;6.10;99.90;;;;;;5006833;28;37500;-80
2022/10/12 06:57:25;;;;;;;21.70;10.70;;;6.10;99.90;;;;;;5031484;28;38658;-81
2022/10/12 06:59:51;;;;;;;20.70;11.07;;;6.10;99.90;;;;;;5027876;28;39541;-80
2022/10/12 07:02:17;;;;;;;14.17;8.97;;;6.10;99.90;;;;;;5029218;28;37743;-81
2022/10/12 07:04:43;;;;;;;20.33;11.30;;;6.10;99.90;;;;;;5008340;28;37063;-80
2022/10/12 07:07:09;;;;;;;17.73;10.47;;;6.10;99.90;;;;;;5027888;28;38842;-80
2022/10/12 07:09:36;;;;;;;21.53;11.60;;;6.10;99.90;;;;;;5023746;28;38879;-81
2022/10/12 07:12:02;;;;;;;22.17;11.83;;;6.10;99.90;;;;;;5007642;28;36077;-81
2022/10/12 07:14:28;;;;;;;18.67;11.70;;;6.10;99.90;;;;;;5030131;28;37097;-81
2022/10/12 07:16:54;;;;;;;20.00;10.97;;;6.20;99.90;;;;;;5014875;28;37232;-81
2022/10/12 07:19:21;;;;;;;17.93;11.57;;;6.20;99.90;;;;;;5004743;28;37500;-81
2022/10/12 07:21:47;;;;;;;19.10;12.10;;;6.20;99.90;;;;;;5012027;28;36539;-81
2022/10/12 07:24:13;;;;;;;26.00;12.93;;;6.20;99.90;;;;;;5009298;28;38307;-80
2022/10/12 07:26:39;;;;;;;26.10;13.77;;;6.20;99.90;;;;;;5007744;28;37164;-81
2022/10/12 07:29:06;;;;;;;21.40;12.97;;;6.30;99.90;;;;;;5030855;28;37983;-81
2022/10/12 07:31:46;;;;;;;23.73;13.83;;;6.40;99.90;;;;;;5007985;28;37011;-81
2022/10/12 07:34:19;;;;;;;23.83;14.27;;;6.40;99.90;;;;;;5001882;28;38750;-81
2022/10/12 07:36:46;;;;;;;23.53;14.70;;;6.50;99.90;;;;;;5015815;28;37592;-82
2022/10/12 07:39:13;;;;;;;25.90;16.47;;;6.60;99.90;;;;;;5013729;28;38047;-81
2022/10/12 07:41:39;;;;;;;35.90;19.73;;;6.70;99.90;;;;;;5029785;28;38267;-81
2022/10/12 07:44:08;;;;;;;44.80;21.83;;;6.80;99.90;;;;;;5029815;28;20064;-81
2022/10/12 07:46:35;;;;;;;43.17;23.73;;;6.90;99.90;;;;;;5004503;28;38911;-82
2022/10/12 07:49:04;;;;;;;46.77;25.80;;;7.20;99.90;;;;;;5022933;28;38384;-81
2022/10/12 07:51:33;;;;;;;37.33;24.70;;;7.30;99.90;;;;;;5005767;28;48315;-81
2022/10/12 07:54:07;;;;;;;31.23;21.83;;;7.50;99.90;;;;;;4980852;28;39155;-82
2022/10/12 07:56:36;;;;;;;77.30;43.00;;;7.70;99.90;;;;;;5000858;28;49410;-80
2022/10/12 07:59:25;;;;;;;56.80;29.50;;;7.90;99.90;;;;;;4946631;28;37910;-81
2022/10/12 08:01:52;;;;;;;53.83;29.97;;;8.20;99.90;;;;;;4989831;28;37890;-81
2022/10/12 08:04:42;;;;;;;48.83;28.17;;;8.30;99.90;;;;;;5008209;28;39548;-81
2022/10/12 08:07:14;;;;;;;54.63;25.53;;;8.40;99.90;;;;;;4997103;28;38874;-81
2022/10/12 08:09:46;;;;;;;46.53;26.73;;;8.60;99.90;;;;;;4997811;28;38448;-82
2022/10/12 08:12:21;;;;;;;49.90;28.10;;;8.80;99.90;;;;;;4976589;28;37412;-82
2022/10/12 08:14:54;;;;;;;55.33;23.43;;;9.00;99.90;;;;;;4987796;28;39354;-81
2022/10/12 08:17:22;;;;;;;42.37;21.57;;;9.10;99.90;;;;;;4980692;28;41070;-81
2022/10/12 08:19:49;;;;;;;39.47;20.40;;;9.30;99.90;;;;;;5003663;28;38296;-81
2022/10/12 08:22:16;;;;;;;30.50;18.37;;;9.50;99.90;;;;;;4999720;28;36838;-81
2022/10/12 08:24:43;;;;;;;41.37;21.93;;;9.60;99.90;;;;;;4989812;28;38909;-80
2022/10/12 08:27:10;;;;;;;41.90;23.23;;;9.80;99.90;;;;;;4987290;28;37553;-81
2022/10/12 08:29:39;;;;;;;36.80;18.30;;;9.90;99.90;;;;;;5014299;28;37194;-81
2022/10/12 08:32:06;;;;;;;36.93;18.07;;;10.00;99.90;;;;;;4998028;28;38109;-81
2022/10/12 08:34:34;;;;;;;42.70;20.23;;;10.10;99.90;;;;;;5007965;28;38959;-81
2022/10/12 08:37:02;;;;;;;38.10;16.83;;;10.20;99.90;;;;;;4982895;28;38606;-82
2022/10/12 08:39:30;;;;;;;38.47;17.27;;;10.20;99.90;;;;;;4982105;28;46816;-80
2022/10/12 08:42:33;;;;;;;31.52;15.93;;;10.30;99.90;;;;;;4997709;28;37760;-81
2022/10/12 08:45:21;;;;;;;38.10;18.95;;;10.40;99.90;;;;;;4985427;28;47093;-80
2022/10/12 08:47:53;;;;;;;34.43;17.93;;;10.50;99.90;;;;;;4989338;28;47305;-81
2022/10/12 08:50:45;;;;;;;37.77;18.97;;;10.50;99.90;;;;;;4961845;28;36749;-81
2022/10/12 08:53:14;;;;;;;33.00;17.03;;;10.60;99.90;;;;;;4972381;28;36743;-80
2022/10/12 08:55:44;;;;;;;37.20;16.93;;;10.60;99.90;;;;;;4986750;28;39586;-81
2022/10/12 08:58:19;;;;;;;30.63;17.85;;;10.70;99.90;;;;;;4987207;28;39503;-80
2022/10/12 09:01:00;;;;;;;30.60;15.77;;;10.70;99.90;;;;;;4995850;28;38766;-80
2022/10/12 09:03:45;;;;;;;34.60;16.70;;;10.70;99.90;;;;;;4988625;28;35629;-79
2022/10/12 09:06:17;;;;;;;35.60;16.63;;;10.80;99.90;;;;;;4969557;28;40108;-80
2022/10/12 09:09:04;;;;;;;37.70;17.88;;;10.80;99.90;;;;;;4973795;28;38220;-80
2022/10/12 09:11:50;;;;;;;29.75;15.57;;;10.90;99.90;;;;;;4981986;28;46919;-80
2022/10/12 09:14:22;;;;;;;25.33;13.98;;;10.90;99.90;;;;;;4969758;28;37831;-81
2022/10/12 09:16:50;;;;;;;25.75;12.50;;;11.00;99.90;;;;;;4984015;28;38984;-80
2022/10/12 09:19:23;;;;;;;26.25;13.52;;;11.00;99.90;;;;;;4985347;28;37057;-80
2022/10/12 09:21:51;;;;;;;28.20;14.33;;;11.00;99.90;;;;;;4996699;28;37288;-81
2022/10/12 09:24:26;;;;;;;34.38;14.32;;;11.10;99.90;;;;;;4993699;28;36199;-80
2022/10/12 09:26:59;;;;;;;33.63;14.88;;;11.20;99.90;;;;;;4995614;28;39614;-79
2022/10/12 09:29:30;;;;;;;32.30;16.77;;;11.30;99.90;;;;;;4993407;28;38628;-79
2022/10/12 09:32:12;;;;;;;39.58;16.25;;;11.30;99.90;;;;;;5009992;28;38301;-80
2022/10/12 09:34:39;;;;;;;33.67;15.18;;;11.40;99.90;;;;;;5006095;28;48927;-80
2022/10/12 09:37:08;;;;;;;32.65;15.35;;;11.60;99.90;;;;;;5000506;28;39349;-80
2022/10/12 09:39:36;;;;;;;33.75;15.20;;;11.60;99.90;;;;;;4992704;28;38353;-80
2022/10/12 09:42:02;;;;;;;32.47;14.85;;;11.70;99.90;;;;;;4992011;28;36752;-80
2022/10/12 09:44:45;;;;;;;29.48;15.93;;;11.80;99.90;;;;;;5005159;28;49408;-80
2022/10/12 09:47:22;;;;;;;33.75;18.40;;;12.00;99.90;;;;;;4994287;28;39473;-80
2022/10/12 09:49:50;;;;;;;30.95;15.90;;;12.30;99.90;;;;;;4989326;28;38228;-80
2022/10/12 09:52:20;;;;;;;31.90;15.20;;;12.40;99.90;;;;;;5012986;28;39534;-80
2022/10/12 09:55:00;;;;;;;35.15;14.18;;;12.60;99.90;;;;;;5009439;28;38285;-80
2022/10/12 09:57:35;;;;;;;25.55;13.75;;;12.70;99.90;;;;;;5013880;28;38666;-80
2022/10/12 10:00:24;;;;;;;25.83;11.85;;;13.00;99.90;;;;;;5014393;28;38484;-80
2022/10/12 10:02:52;;;;;;;25.85;12.15;;;13.20;99.90;;;;;;5018197;28;48355;-81
2022/10/12 10:05:29;;;;;;;24.98;11.93;;;13.10;99.90;;;;;;5020428;28;37370;-81
2022/10/12 10:08:13;;;;;;;23.20;11.02;;;13.10;99.90;;;;;;5004450;28;38876;-80
2022/10/12 10:10:50;;;;;;;24.90;10.52;;;13.20;99.90;;;;;;5015532;28;48798;-80
2022/10/12 10:13:16;;;;;;;29.92;11.32;;;13.50;99.90;;;;;;5005276;28;38931;-80
2022/10/12 10:15:48;;;;;;;28.05;11.48;;;13.80;99.90;;;;;;5010723;28;38763;-81
2022/10/12 10:18:49;;;;;;;24.75;9.85;;;14.10;99.90;;;;;;5002583;28;39428;-81
2022/10/12 10:21:35;;;;;;;19.50;9.48;;;14.30;99.90;;;;;;4993165;28;37647;-80
2022/10/12 10:24:04;;;;;;;21.30;8.43;;;14.00;99.90;;;;;;5000524;28;37060;-80
2022/10/12 10:26:59;;;;;;;20.50;7.78;;;14.00;99.90;;;;;;4991988;28;47178;-80
2022/10/12 10:29:39;;;;;;;26.38;10.43;;;14.00;99.90;;;;;;4995161;28;39344;-80
2022/10/12 10:32:30;;;;;;;22.25;9.30;;;14.10;99.90;;;;;;4997576;28;38945;-80
2022/10/12 10:35:02;;;;;;;22.60;8.77;;;14.20;99.90;;;;;;4990024;28;37736;-81
2022/10/12 10:37:29;;;;;;;23.05;9.50;;;14.40;99.90;;;;;;4997771;28;37640;-80
2022/10/12 10:39:57;;;;;;;20.70;9.13;;;14.50;99.90;;;;;;4983074;28;37308;-81
2022/10/12 10:42:30;;;;;;;23.98;8.45;;;14.70;99.90;;;;;;4988988;28;37188;-81
2022/10/12 10:45:03;;;;;;;20.85;9.30;;;14.70;99.90;;;;;;4997554;28;37759;-79
2022/10/12 10:47:32;;;;;;;20.55;9.10;;;14.40;99.90;;;;;;4998151;28;44835;-80
2022/10/12 10:50:01;;;;;;;20.50;9.75;;;14.10;99.90;;;;;;5016344;28;39292;-80
2022/10/12 10:52:29;;;;;;;20.60;9.00;;;14.00;99.90;;;;;;4996147;28;38740;-80
2022/10/12 10:55:05;;;;;;;23.40;10.05;;;14.00;99.90;;;;;;5000679;28;39649;-79
2022/10/12 10:57:33;;;;;;;24.80;8.77;;;14.20;99.90;;;;;;4995619;28;46983;-80
2022/10/12 11:00:22;;;;;;;22.58;9.55;;;14.20;99.90;;;;;;4993843;28;39618;-79
2022/10/12 11:03:01;;;;;;;25.02;9.38;;;14.10;99.90;;;;;;4986677;28;47702;-79
2022/10/12 11:05:31;;;;;;;17.30;8.40;;;14.10;99.90;;;;;;4994990;28;47358;-80
2022/10/12 11:08:00;;;;;;;20.45;8.23;;;14.00;99.90;;;;;;4999957;28;37873;-80
2022/10/12 11:10:41;;;;;;;22.95;8.90;;;13.70;99.90;;;;;;5015279;28;38695;-80
2022/10/12 11:13:19;;;;;;;18.52;8.65;;;13.70;99.90;;;;;;4968702;28;38278;-80
2022/10/12 11:16:06;;;;;;;21.25;8.88;;;13.80;99.90;;;;;;5001857;28;38574;-79
2022/10/12 11:18:38;;;;;;;21.25;9.23;;;13.80;99.90;;;;;;5013310;28;48650;-80
2022/10/12 11:21:11;;;;;;;22.58;9.85;;;13.60;99.90;;;;;;4984163;28;37741;-79
2022/10/12 11:23:53;;;;;;;19.80;9.43;;;13.60;99.90;;;;;;4996378;28;47114;-80
2022/10/12 11:26:28;;;;;;;;;;;13.70;99.90;;;;;;4994260;28;39259;-80
2022/10/12 11:28:59;;;;;;;23.85;10.55;;;14.00;99.90;;;;;;4998862;28;38975;-80
2022/10/12 11:31:38;;;;;;;24.85;12.15;;;14.20;99.90;;;;;;4995374;28;37963;-79
2022/10/12 11:34:07;;;;;;;23.80;12.00;;;14.50;99.90;;;;;;5012641;28;38537;-80
2022/10/12 11:36:38;;;;;;;27.13;12.60;;;14.40;99.90;;;;;;4988013;28;39187;-79
2022/10/12 11:39:15;;;;;;;28.85;14.25;;;14.30;99.90;;;;;;4991044;28;38063;-80
2022/10/12 11:41:51;;;;;;;28.58;14.05;;;14.10;99.90;;;;;;4979200;28;39123;-79
2022/10/12 11:44:26;;;;;;;25.35;13.52;;;14.10;99.90;;;;;;4995132;28;38455;-80
2022/10/12 11:47:22;;;;;;;23.92;13.23;;;14.20;99.90;;;;;;4971421;28;37276;-79
2022/10/12 11:49:58;;;;;;;25.33;13.50;;;14.40;99.90;;;;;;4992195;28;47341;-80
2022/10/12 11:52:27;;;;;;;23.92;12.93;;;14.60;99.90;;;;;;4989547;28;40659;-79
2022/10/12 11:55:22;;;;;;;23.98;12.40;;;14.70;99.90;;;;;;4993127;28;39231;-79
2022/10/12 11:57:50;;;;;;;28.75;13.20;;;14.50;99.90;;;;;;4992086;28;47358;-80
2022/10/12 12:01:04;;;;;;;22.42;12.35;;;14.50;99.90;;;;;;4990694;28;39182;-79
2022/10/12 12:03:43;;;;;;;32.60;13.68;;;14.60;99.90;;;;;;4940241;28;46453;-79
2022/10/12 12:06:28;;;;;;;25.00;12.82;;;14.60;99.90;;;;;;4950486;28;38378;-79
2022/10/12 12:08:54;;;;;;;29.45;12.05;;;14.60;99.90;;;;;;4969216;28;39424;-79
2022/10/12 12:11:28;;;;;;;30.27;12.95;;;14.50;99.90;;;;;;4981608;28;37968;-79
2022/10/12 12:14:19;;;;;;;22.33;11.13;;;14.70;99.90;;;;;;4991440;28;39613;-79
2022/10/12 12:16:47;;;;;;;26.70;11.52;;;14.60;99.90;;;;;;4989295;28;47489;-79
2022/10/12 12:19:39;;;;;;;20.20;10.00;;;14.50;99.90;;;;;;4985031;28;38619;-80
2022/10/12 12:22:28;;;;;;;21.27;9.85;;;14.40;99.90;;;;;;4997542;28;37976;-80
2022/10/12 12:25:07;;;;;;;18.63;9.88;;;14.30;99.90;;;;;;5009746;28;40545;-80
2022/10/12 12:27:56;;;;;;;20.17;9.35;;;14.30;99.90;;;;;;4995535;28;47738;-79
2022/10/12 12:30:33;;;;;;;27.35;9.40;;;14.30;99.90;;;;;;4999866;28;40478;-80
2022/10/12 12:33:16;;;;;;;23.27;9.48;;;14.40;99.90;;;;;;4995754;28;38841;-80
2022/10/12 12:36:03;;;;;;;14.65;8.40;;;14.50;99.90;;;;;;4995240;28;48097;-79
2022/10/12 12:38:39;;;;;;;20.67;8.57;;;14.80;99.90;;;;;;4989737;28;47273;-78
2022/10/12 12:41:12;;;;;;;24.02;8.23;;;14.80;99.90;;;;;;4992362;28;39215;-79
2022/10/12 12:43:52;;;;;;;18.27;8.07;;;14.70;99.90;;;;;;4987737;28;36218;-80
2022/10/12 12:46:19;;;;;;;18.05;8.07;;;14.80;99.90;;;;;;4997003;28;38665;-79
2022/10/12 12:48:45;;;;;;;22.73;8.43;;;15.00;99.90;;;;;;5015904;28;39332;-79
2022/10/12 12:51:16;;;;;;;15.02;6.97;;;15.00;99.90;;;;;;4996008;28;38686;-79
2022/10/12 12:53:51;;;;;;;14.13;6.80;;;15.00;99.90;;;;;;4993906;28;36010;-78
2022/10/12 12:56:33;;;;;;;17.92;7.15;;;15.00;99.90;;;;;;4995306;28;38848;-79
2022/10/12 12:59:36;;;;;;;16.45;6.57;;;14.70;99.90;;;;;;5015415;28;37261;-79
2022/10/12 13:02:22;;;;;;;18.52;7.20;;;14.60;99.90;;;;;;5011873;28;48631;-79
2022/10/12 13:04:51;;;;;;;18.67;7.18;;;14.70;99.90;;;;;;5000775;28;38603;-79
2022/10/12 13:08:05;;;;;;;15.80;6.65;;;14.60;99.90;;;;;;5015706;28;38587;-79
2022/10/12 13:10:52;;;;;;;18.08;7.57;;;14.70;99.90;;;;;;4913009;29;46914;-79
2022/10/12 13:13:40;;;;;;;21.42;8.18;;;14.80;99.90;;;;;;5008735;28;37906;-79
2022/10/12 13:16:37;;;;;;;16.67;7.00;;;14.70;99.90;;;;;;4992453;28;38157;-79
2022/10/12 13:19:08;;;;;;;16.42;7.85;;;14.70;99.90;;;;;;4995877;28;37443;-79
2022/10/12 13:21:40;;;;;;;17.08;8.40;;;14.90;99.90;;;;;;4987771;28;39093;-78
2022/10/12 13:24:23;;;;;;;18.70;8.63;;;15.00;99.90;;;;;;4996877;28;39377;-79
2022/10/12 13:26:53;;;;;;;16.83;9.52;;;15.10;99.90;;;;;;4977431;28;38634;-79
2022/10/12 13:29:27;;;;;;;17.05;8.25;;;14.90;99.90;;;;;;4990808;28;39339;-79
2022/10/12 13:31:58;;;;;;;21.48;8.98;;;14.90;99.90;;;;;;5001209;28;39427;-79
2022/10/12 13:34:37;;;;;;;19.80;8.82;;;14.80;99.90;;;;;;4985242;28;36635;-78
2022/10/12 13:37:10;;;;;;;19.90;9.65;;;14.90;99.90;;;;;;4999562;28;38070;-78
2022/10/12 13:39:43;;;;;;;23.52;8.95;;;14.80;99.90;;;;;;4987474;28;38925;-79
2022/10/12 13:42:20;;;;;;;27.02;10.60;;;14.80;99.90;;;;;;4977824;28;36893;-79
2022/10/12 13:44:47;;;;;;;21.90;9.43;;;14.70;99.90;;;;;;5013861;28;38320;-79
2022/10/12 13:47:31;;;;;;;20.40;9.82;;;14.70;99.90;;;;;;5000158;28;36455;-79
2022/10/12 13:49:58;;;;;;;23.38;9.60;;;14.50;99.90;;;;;;5004609;28;39809;-79
2022/10/12 13:52:26;;;;;;;22.73;9.82;;;14.50;99.90;;;;;;5004813;28;39468;-79
2022/10/12 13:54:52;;;;;;;24.20;10.05;;;14.70;99.90;;;;;;4992482;28;37067;-79
2022/10/12 13:57:41;;;;;;;17.75;7.80;;;15.00;99.90;;;;;;4994166;28;37529;-79
2022/10/12 14:00:18;;;;;;;18.48;6.25;;;15.10;99.90;;;;;;4990425;28;39195;-79
2022/10/12 14:03:00;;;;;;;20.67;6.85;;;15.30;99.90;;;;;;4994315;28;47448;-80
2022/10/12 14:05:29;;;;;;;14.73;6.95;;;15.00;99.90;;;;;;5014393;28;38565;-79
2022/10/12 14:08:05;;;;;;;17.10;7.15;;;14.80;99.90;;;;;;4996828;28;36339;-79
2022/10/12 14:10:35;;;;;;;18.60;7.80;;;14.70;99.90;;;;;;4995335;28;47113;-79
2022/10/12 14:13:03;;;;;;;21.83;8.30;;;14.80;99.90;;;;;;4997157;28;39887;-79
2022/10/12 14:15:33;;;;;;;21.60;8.88;;;14.80;99.90;;;;;;5012949;28;48882;-78
2022/10/12 14:18:00;;;;;;;16.55;8.25;;;14.90;99.90;;;;;;5019188;28;36115;-79
2022/10/12 14:20:36;;;;;;;18.92;8.75;;;14.70;99.90;;;;;;5012482;28;40104;-79
2022/10/12 14:23:11;;;;;;;15.80;7.32;;;14.90;99.90;;;;;;5007326;28;37384;-79
2022/10/12 14:25:48;;;;;;;21.23;8.68;;;15.10;99.90;;;;;;5012468;28;48581;-80
2022/10/12 14:28:31;;;;;;;18.65;8.15;;;15.20;99.90;;;;;;4997824;28;35981;-80
2022/10/12 14:30:57;;;;;;;20.77;8.55;;;15.20;99.90;;;;;;5003443;28;37665;-81
2022/10/12 14:33:25;;;;;;;17.00;8.07;;;15.30;99.90;;;;;;5009218;28;37212;-80
2022/10/12 14:36:10;;;;;;;17.17;7.45;;;15.20;99.90;;;;;;5000455;28;37329;-79
2022/10/12 14:38:45;;;;;;;16.20;7.68;;;15.30;99.90;;;;;;5013414;28;48773;-78
2022/10/12 14:41:32;;;;;;;19.90;7.95;;;15.20;99.90;;;;;;4993509;28;36960;-80
2022/10/12 14:44:12;;;;;;;18.60;8.68;;;15.20;99.90;;;;;;4996740;28;38672;-80
2022/10/12 14:46:41;;;;;;;19.48;8.43;;;15.10;99.90;;;;;;5004145;28;48216;-80
2022/10/12 14:49:19;;;;;;;22.48;7.88;;;15.00;99.90;;;;;;4998909;28;38027;-80
2022/10/12 14:51:46;;;;;;;18.77;9.00;;;14.70;99.90;;;;;;5025072;28;39171;-80
2022/10/12 14:54:12;;;;;;;14.68;7.65;;;14.60;99.90;;;;;;5024837;28;39274;-80
2022/10/12 14:56:39;;;;;;;18.65;8.18;;;14.60;99.90;;;;;;5004567;28;37916;-79
2022/10/12 14:59:05;;;;;;;20.88;8.50;;;14.60;99.90;;;;;;5005746;28;37138;-80
2022/10/12 15:01:31;;;;;;;18.02;8.48;;;14.60;99.90;;;;;;5004183;28;37420;-80
2022/10/12 15:03:57;;;;;;;24.55;8.30;;;14.60;99.90;;;;;;5002790;28;37477;-81
2022/10/12 15:06:23;;;;;;;19.33;8.48;;;14.60;99.90;;;;;;5022902;28;38169;-80
2022/10/12 15:08:51;;;;;;;19.58;8.00;;;14.70;99.90;;;;;;5007645;28;36189;-80
2022/10/12 15:11:18;;;;;;;18.15;8.20;;;14.70;99.90;;;;;;5023193;28;40290;-81
2022/10/12 15:13:44;;;;;;;18.90;8.43;;;14.60;99.90;;;;;;5016932;28;38347;-80
2022/10/12 15:16:17;;;;;;;20.08;7.82;;;14.60;99.90;;;;;;5024592;28;38671;-80
2022/10/12 15:18:43;;;;;;;17.42;8.77;;;14.60;99.90;;;;;;5013141;28;37343;-80
2022/10/12 15:21:09;;;;;;;19.38;8.50;;;14.60;99.90;;;;;;5017744;28;40078;-80
2022/10/12 15:23:35;;;;;;;22.33;9.52;;;14.50;99.90;;;;;;5006959;28;37427;-80
2022/10/12 15:26:02;;;;;;;22.58;10.40;;;14.50;99.90;;;;;;5019786;28;38368;-80
2022/10/12 15:28:28;;;;;;;26.90;10.02;;;14.30;99.90;;;;;;5003452;28;37412;-80
2022/10/12 15:31:03;;;;;;;20.75;10.52;;;14.30;99.90;;;;;;5000897;28;39612;-80
2022/10/12 15:33:29;;;;;;;22.33;10.95;;;14.30;99.90;;;;;;5002943;28;36960;-80
2022/10/12 15:35:55;;;;;;;28.10;11.77;;;14.40;99.90;;;;;;5000497;28;37058;-80
2022/10/12 15:38:22;;;;;;;22.00;11.07;;;14.40;99.90;;;;;;5008598;28;37675;-79
2022/10/12 15:40:50;;;;;;;30.95;12.65;;;14.40;99.90;;;;;;5011822;28;40075;-80
2022/10/12 15:43:16;;;;;;;26.33;12.23;;;14.40;99.90;;;;;;5001892;28;37444;-79
2022/10/12 15:45:42;;;;;;;22.45;11.95;;;14.40;99.90;;;;;;5016891;28;38262;-79
2022/10/12 15:48:10;;;;;;;24.48;12.32;;;14.30;99.90;;;;;;4999105;28;37593;-79
2022/10/12 15:50:43;;;;;;;26.35;11.90;;;14.20;99.90;;;;;;5008662;28;40364;-80
2022/10/12 15:53:12;;;;;;;;;;;14.20;99.90;;;;;;5004013;28;38833;-80
2022/10/12 15:55:38;;;;;;;27.50;12.50;;;14.20;99.90;;;;;;5001187;28;38038;-80
2022/10/12 15:58:04;;;;;;;31.85;13.27;;;14.20;99.90;;;;;;5016825;28;37493;-80
2022/10/12 16:00:34;;;;;;;27.92;12.85;;;14.20;99.90;;;;;;4999638;28;39299;-80
2022/10/12 16:03:01;;;;;;;29.27;11.93;;;14.10;99.90;;;;;;5014787;28;38149;-80
2022/10/12 16:05:35;;;;;;;21.50;11.50;;;14.10;99.90;;;;;;5017704;28;38839;-80
2022/10/12 16:08:03;;;;;;;22.75;11.27;;;14.00;99.90;;;;;;5003805;28;36652;-81
2022/10/12 16:10:35;;;;;;;25.08;10.43;;;13.80;99.90;;;;;;5026335;28;48279;-80
2022/10/12 16:13:04;;;;;;;23.75;11.95;;;13.70;99.90;;;;;;5023407;28;38037;-81
2022/10/12 16:15:32;;;;;;;22.38;12.40;;;13.70;99.90;;;;;;4998238;28;46910;-80
2022/10/12 16:17:59;;;;;;;22.65;12.60;;;13.80;99.90;;;;;;4997144;28;36134;-80
2022/10/12 16:20:27;;;;;;;27.30;11.52;;;13.70;99.90;;;;;;5012912;28;39690;-80
2022/10/12 16:22:54;;;;;;;26.00;11.73;;;13.70;99.90;;;;;;5016752;28;36785;-80
2022/10/12 16:25:22;;;;;;;21.27;11.07;;;13.70;99.90;;;;;;5001482;28;39537;-80
2022/10/12 16:27:50;;;;;;;21.63;10.88;;;13.60;99.90;;;;;;5000627;28;37296;-80
2022/10/12 16:30:16;;;;;;;23.40;11.43;;;13.60;99.90;;;;;;5016855;28;39156;-80